sensor_id;sensor_type;location;lat;lon;timestamp;pressure;altitude;pressure_sealevel;temperature;humidity
54666;BME280;40566;50.006;36.180;2023-05-02T00:03:43;100357.56;;;6.88;71.81
54666;BME280;40566;50.006;36.180;2023-05-02T00:08:44;100355.88;;;6.83;71.99
54666;BME280;40566;50.006;36.180;2023-05-02T00:13:44;100359.31;;;6.79;71.99
54666;BME280;40566;50.006;36.180;2023-05-02T00:18:45;100371.28;;;6.89;71.76
54666;BME280;40566;50.006;36.180;2023-05-02T00:23:46;100385.84;;;6.93;71.39
54666;BME280;40566;50.006;36.180;2023-05-02T00:28:46;100381.59;;;6.80;71.46
54666;BME280;40566;50.006;36.180;2023-05-02T00:33:47;100391.88;;;6.87;71.25
54666;BME280;40566;50.006;36.180;2023-05-02T00:38:47;100385.03;;;6.74;71.51
54666;BME280;40566;50.006;36.180;2023-05-02T00:43:48;100401.31;;;6.70;71.68
54666;BME280;40566;50.006;36.180;2023-05-02T00:48:49;100391.91;;;6.66;71.79
54666;BME280;40566;50.006;36.180;2023-05-02T00:53:50;100416.75;;;6.76;71.23
54666;BME280;40566;50.006;36.180;2023-05-02T00:58:52;100404.75;;;6.63;71.40
54666;BME280;40566;50.006;36.180;2023-05-02T01:14:29;100420.19;;;6.47;71.37
54666;BME280;40566;50.006;36.180;2023-05-02T01:19:35;100423.63;;;6.46;71.27
54666;BME280;40566;50.006;36.180;2023-05-02T01:24:48;100428.75;;;6.43;71.37
54666;BME280;40566;50.006;36.180;2023-05-02T01:29:55;100430.47;;;6.41;71.17
54666;BME280;40566;50.006;36.180;2023-05-02T01:34:57;100439.03;;;6.39;71.25
54666;BME280;40566;50.006;36.180;2023-05-02T01:39:59;100445.03;;;6.33;71.28
54666;BME280;40566;50.006;36.180;2023-05-02T01:45:03;100449.28;;;6.28;71.10
54666;BME280;40566;50.006;36.180;2023-05-02T01:50:06;100451.00;;;6.21;71.40
54666;BME280;40566;50.006;36.180;2023-05-02T01:55:13;100454.44;;;6.19;71.47
54666;BME280;40566;50.006;36.180;2023-05-02T02:00:18;100451.84;;;6.17;71.43
54666;BME280;40566;50.006;36.180;2023-05-02T02:05:21;100458.72;;;6.27;70.73
54666;BME280;40566;50.006;36.180;2023-05-02T02:10:23;100467.25;;;6.12;70.96
54666;BME280;40566;50.006;36.180;2023-05-02T02:15:33;100471.50;;;6.06;71.09
54666;BME280;40566;50.006;36.180;2023-05-02T02:20:34;100480.06;;;5.95;71.29
54666;BME280;40566;50.006;36.180;2023-05-02T02:25:35;100504.91;;;6.12;71.00
54666;BME280;40566;50.006;36.180;2023-05-02T02:30:36;100492.03;;;6.00;71.06
54666;BME280;40566;50.006;36.180;2023-05-02T02:35:41;100504.88;;;6.00;70.95
54666;BME280;40566;50.006;36.180;2023-05-02T02:41:02;100514.28;;;6.02;70.90
54666;BME280;40566;50.006;36.180;2023-05-02T02:46:29;100516.91;;;6.07;70.81
54666;BME280;40566;50.006;36.180;2023-05-02T02:51:41;100518.63;;;6.11;70.63
54666;BME280;40566;50.006;36.180;2023-05-02T02:56:45;100529.75;;;6.11;70.75
54666;BME280;40566;50.006;36.180;2023-05-02T03:01:55;100542.56;;;6.10;70.90
54666;BME280;40566;50.006;36.180;2023-05-02T03:06:59;100552.00;;;6.08;71.32
54666;BME280;40566;50.006;36.180;2023-05-02T03:12:01;100559.72;;;6.15;71.12
54666;BME280;40566;50.006;36.180;2023-05-02T03:17:01;100561.47;;;6.21;70.82
54666;BME280;40566;50.006;36.180;2023-05-02T03:22:03;100565.75;;;6.25;70.76
54666;BME280;40566;50.006;36.180;2023-05-02T03:27:04;100574.31;;;6.29;71.12
54666;BME280;40566;50.006;36.180;2023-05-02T03:32:04;100572.66;;;6.40;70.61
54666;BME280;40566;50.006;36.180;2023-05-02T03:37:05;100579.53;;;6.50;70.43
54666;BME280;40566;50.006;36.180;2023-05-02T03:42:06;100589.81;;;6.57;70.34
54666;BME280;40566;50.006;36.180;2023-05-02T03:47:06;100600.13;;;6.60;70.40
54666;BME280;40566;50.006;36.180;2023-05-02T03:52:07;100623.28;;;6.73;70.15
54666;BME280;40566;50.006;36.180;2023-05-02T03:57:08;100617.28;;;6.68;70.49
54666;BME280;40566;50.006;36.180;2023-05-02T04:02:09;100637.03;;;6.83;70.27
54666;BME280;40566;50.006;36.180;2023-05-02T04:07:10;100631.00;;;6.78;70.31
54666;BME280;40566;50.006;36.180;2023-05-02T04:12:17;100633.59;;;6.90;70.31
54666;BME280;40566;50.006;36.180;2023-05-02T04:17:17;100650.78;;;7.05;70.06
54666;BME280;40566;50.006;36.180;2023-05-02T04:22:18;100654.22;;;7.13;69.85
54666;BME280;40566;50.006;36.180;2023-05-02T04:27:19;100663.63;;;7.22;69.64
54666;BME280;40566;50.006;36.180;2023-05-02T04:32:19;100670.50;;;7.29;69.64
54666;BME280;40566;50.006;36.180;2023-05-02T04:37:20;100678.25;;;7.37;69.60
54666;BME280;40566;50.006;36.180;2023-05-02T04:42:21;100665.34;;;7.40;69.73
54666;BME280;40566;50.006;36.180;2023-05-02T04:47:21;100669.66;;;7.50;69.72
54666;BME280;40566;50.006;36.180;2023-05-02T04:52:22;100679.09;;;7.65;69.54
54666;BME280;40566;50.006;36.180;2023-05-02T04:57:23;100687.66;;;7.77;69.51
54666;BME280;40566;50.006;36.180;2023-05-02T05:02:23;100706.53;;;8.02;68.77
54666;BME280;40566;50.006;36.180;2023-05-02T05:07:25;100713.34;;;8.15;68.69
54666;BME280;40566;50.006;36.180;2023-05-02T05:12:26;100714.19;;;8.26;68.22
54666;BME280;40566;50.006;36.180;2023-05-02T05:17:27;100721.03;;;8.40;68.18
54666;BME280;40566;50.006;36.180;2023-05-02T05:22:27;100718.41;;;8.57;67.59
54666;BME280;40566;50.006;36.180;2023-05-02T05:27:28;100720.06;;;8.74;67.16
54666;BME280;40566;50.006;36.180;2023-05-02T05:32:29;100714.81;;;8.93;66.63
54666;BME280;40566;50.006;36.180;2023-05-02T05:37:29;100723.34;;;9.06;66.07
54666;BME280;40566;50.006;36.180;2023-05-02T05:42:30;100719.81;;;9.16;65.58
54666;BME280;40566;50.006;36.180;2023-05-02T05:47:31;100727.47;;;9.30;65.12
54666;BME280;40566;50.006;36.180;2023-05-02T05:52:31;100726.56;;;9.40;64.57
54666;BME280;40566;50.006;36.180;2023-05-02T05:57:32;100730.75;;;9.55;63.93
54666;BME280;40566;50.006;36.180;2023-05-02T06:02:32;100723.78;;;9.68;63.42
54666;BME280;40566;50.006;36.180;2023-05-02T06:07:33;100733.09;;;9.84;62.51
54666;BME280;40566;50.006;36.180;2023-05-02T06:12:34;100731.28;;;9.92;62.22
54666;BME280;40566;50.006;36.180;2023-05-02T06:17:34;100729.41;;;10.10;61.49
54666;BME280;40566;50.006;36.180;2023-05-02T06:22:35;100730.13;;;10.24;60.61
54666;BME280;40566;50.006;36.180;2023-05-02T06:27:36;100730.88;;;10.39;59.65
54666;BME280;40566;50.006;36.180;2023-05-02T06:32:37;100731.66;;;10.47;58.88
54666;BME280;40566;50.006;36.180;2023-05-02T06:37:37;100728.00;;;10.62;57.71
54666;BME280;40566;50.006;36.180;2023-05-02T06:42:38;100742.44;;;10.80;56.77
54666;BME280;40566;50.006;36.180;2023-05-02T06:47:38;100739.63;;;10.98;55.13
54666;BME280;40566;50.006;36.180;2023-05-02T06:52:39;100740.41;;;11.05;54.77
54666;BME280;40566;50.006;36.180;2023-05-02T06:57:40;100745.41;;;11.16;54.38
54666;BME280;40566;50.006;36.180;2023-05-02T07:02:40;100737.44;;;11.31;53.01
54666;BME280;40566;50.006;36.180;2023-05-02T07:07:41;100737.28;;;11.40;52.43
54666;BME280;40566;50.006;36.180;2023-05-02T07:12:42;100728.47;;;11.54;52.13
54666;BME280;40566;50.006;36.180;2023-05-02T07:17:43;100736.16;;;11.58;51.54
54666;BME280;40566;50.006;36.180;2023-05-02T07:22:44;100734.28;;;11.68;50.80
54666;BME280;40566;50.006;36.180;2023-05-02T07:27:44;100737.56;;;11.78;49.96
54666;BME280;40566;50.006;36.180;2023-05-02T07:32:45;100734.78;;;11.92;49.56
54666;BME280;40566;50.006;36.180;2023-05-02T07:37:46;100739.66;;;12.08;48.77
54666;BME280;40566;50.006;36.180;2023-05-02T07:42:47;100740.16;;;12.27;48.11
54666;BME280;40566;50.006;36.180;2023-05-02T07:47:48;100736.59;;;12.35;47.52
54666;BME280;40566;50.006;36.180;2023-05-02T07:52:48;100738.06;;;12.48;46.40
54666;BME280;40566;50.006;36.180;2023-05-02T07:57:49;100730.78;;;12.65;45.86
54666;BME280;40566;50.006;36.180;2023-05-02T08:02:49;100740.88;;;12.79;45.16
54666;BME280;40566;50.006;36.180;2023-05-02T08:07:50;100731.97;;;12.91;44.81
54666;BME280;40566;50.006;36.180;2023-05-02T08:12:51;100730.03;;;13.01;44.34
54666;BME280;40566;50.006;36.180;2023-05-02T08:17:52;100727.19;;;13.12;44.10
54666;BME280;40566;50.006;36.180;2023-05-02T08:22:52;100729.78;;;13.13;43.39
54666;BME280;40566;50.006;36.180;2023-05-02T08:27:53;100736.34;;;13.28;43.33
54666;BME280;40566;50.006;36.180;2023-05-02T08:32:53;100736.84;;;13.45;42.48
54666;BME280;40566;50.006;36.180;2023-05-02T08:37:54;100734.91;;;13.54;41.75
54666;BME280;40566;50.006;36.180;2023-05-02T08:42:55;100721.59;;;13.66;41.00
54666;BME280;40566;50.006;36.180;2023-05-02T08:47:57;100717.00;;;13.77;41.22
54666;BME280;40566;50.006;36.180;2023-05-02T08:52:59;100720.91;;;13.94;40.69
54666;BME280;40566;50.006;36.180;2023-05-02T08:58:00;100721.28;;;14.13;41.27
54666;BME280;40566;50.006;36.180;2023-05-02T09:08:21;100707.00;;;14.59;41.45
54666;BME280;40566;50.006;36.180;2023-05-02T09:18:40;100700.53;;;15.02;39.42
54666;BME280;40566;50.006;36.180;2023-05-02T09:23:57;100689.47;;;15.22;38.64
54666;BME280;40566;50.006;36.180;2023-05-02T09:29:02;100691.03;;;15.27;38.28
54666;BME280;40566;50.006;36.180;2023-05-02T09:34:08;100691.59;;;15.37;38.88
54666;BME280;40566;50.006;36.180;2023-05-02T09:39:14;100691.66;;;15.62;37.90
54666;BME280;40566;50.006;36.180;2023-05-02T09:44:20;100697.88;;;17.27;35.51
54666;BME280;40566;50.006;36.180;2023-05-02T09:49:41;100704.44;;;18.77;33.74
54666;BME280;40566;50.006;36.180;2023-05-02T09:54:44;100701.66;;;19.37;32.29
54666;BME280;40566;50.006;36.180;2023-05-02T09:59:55;100695.50;;;19.73;31.35
54666;BME280;40566;50.006;36.180;2023-05-02T10:04:57;100700.09;;;19.33;32.70
54666;BME280;40566;50.006;36.180;2023-05-02T10:10:00;100697.41;;;20.05;31.31
54666;BME280;40566;50.006;36.180;2023-05-02T10:15:03;100687.69;;;19.00;33.21
54666;BME280;40566;50.006;36.180;2023-05-02T10:20:05;100677.13;;;24.39;26.25
54666;BME280;40566;50.006;36.180;2023-05-02T10:25:06;100691.38;;;26.05;24.69
54666;BME280;40566;50.006;36.180;2023-05-02T10:30:08;100678.13;;;24.75;26.34
54666;BME280;40566;50.006;36.180;2023-05-02T10:35:10;100673.84;;;24.85;26.69
54666;BME280;40566;50.006;36.180;2023-05-02T10:40:12;100699.44;;;28.82;22.10
54666;BME280;40566;50.006;36.180;2023-05-02T10:45:32;100695.75;;;30.10;21.35
54666;BME280;40566;50.006;36.180;2023-05-02T10:56:13;100681.63;;;23.47;27.51
54666;BME280;40566;50.006;36.180;2023-05-02T11:06:27;100683.91;;;22.57;27.47
54666;BME280;40566;50.006;36.180;2023-05-02T11:11:44;100672.38;;;20.80;29.27
54666;BME280;40566;50.006;36.180;2023-05-02T11:22:30;100680.47;;;19.06;31.14
54666;BME280;40566;50.006;36.180;2023-05-02T11:37:55;100665.53;;;23.25;25.99
54666;BME280;40566;50.006;36.180;2023-05-02T11:42:58;100671.41;;;22.74;25.89
54666;BME280;40566;50.006;36.180;2023-05-02T11:47:59;100676.44;;;22.21;26.34
54666;BME280;40566;50.006;36.180;2023-05-02T11:52:59;100681.59;;;21.19;27.66
54666;BME280;40566;50.006;36.180;2023-05-02T11:58:00;100666.41;;;20.92;27.81
54666;BME280;40566;50.006;36.180;2023-05-02T12:03:01;100679.41;;;21.72;26.91
54666;BME280;40566;50.006;36.180;2023-05-02T12:08:01;100664.16;;;21.16;27.55
54666;BME280;40566;50.006;36.180;2023-05-02T12:13:04;100666.69;;;20.23;28.14
54666;BME280;40566;50.006;36.180;2023-05-02T12:18:06;100658.13;;;19.33;29.29
54666;BME280;40566;50.006;36.180;2023-05-02T12:23:07;100672.28;;;18.74;29.96
54666;BME280;40566;50.006;36.180;2023-05-02T12:28:09;100662.19;;;18.85;29.96
54666;BME280;40566;50.006;36.180;2023-05-02T12:33:10;100663.81;;;20.76;27.39
54666;BME280;40566;50.006;36.180;2023-05-02T12:38:13;100657.09;;;21.33;26.21
54666;BME280;40566;50.006;36.180;2023-05-02T12:43:14;100672.53;;;20.28;27.41
54666;BME280;40566;50.006;36.180;2023-05-02T12:48:25;100661.47;;;20.05;27.50
54666;BME280;40566;50.006;36.180;2023-05-02T12:53:45;100656.13;;;19.91;27.19
54666;BME280;40566;50.006;36.180;2023-05-02T12:58:47;100658.03;;;19.35;28.10
54666;BME280;40566;50.006;36.180;2023-05-02T13:03:49;100653.13;;;18.92;28.78
54666;BME280;40566;50.006;36.180;2023-05-02T13:08:50;100661.75;;;18.94;28.99
54666;BME280;40566;50.006;36.180;2023-05-02T13:13:51;100642.59;;;19.46;27.91
54666;BME280;40566;50.006;36.180;2023-05-02T13:18:51;100659.31;;;19.09;28.38
54666;BME280;40566;50.006;36.180;2023-05-02T13:23:52;100655.50;;;18.21;30.06
54666;BME280;40566;50.006;36.180;2023-05-02T13:28:54;100659.00;;;17.60;30.24
54666;BME280;40566;50.006;36.180;2023-05-02T13:33:55;100664.34;;;17.36;31.13
54666;BME280;40566;50.006;36.180;2023-05-02T13:38:56;100664.69;;;17.07;31.05
54666;BME280;40566;50.006;36.180;2023-05-02T13:43:57;100661.19;;;16.84;31.55
54666;BME280;40566;50.006;36.180;2023-05-02T13:48:57;100669.63;;;16.69;31.60
54666;BME280;40566;50.006;36.180;2023-05-02T13:53:58;100657.91;;;16.55;31.80
54666;BME280;40566;50.006;36.180;2023-05-02T13:58:59;100666.88;;;16.48;31.86
54666;BME280;40566;50.006;36.180;2023-05-02T14:04:00;100664.69;;;16.37;32.55
54666;BME280;40566;50.006;36.180;2023-05-02T14:09:07;100671.72;;;16.35;32.35
54666;BME280;40566;50.006;36.180;2023-05-02T14:14:08;100669.69;;;16.20;32.51
54666;BME280;40566;50.006;36.180;2023-05-02T14:19:11;100668.19;;;16.13;32.92
54666;BME280;40566;50.006;36.180;2023-05-02T14:24:12;100667.78;;;16.00;32.73
54666;BME280;40566;50.006;36.180;2023-05-02T14:29:14;100669.59;;;15.98;32.76
54666;BME280;40566;50.006;36.180;2023-05-02T14:34:15;100670.00;;;15.85;32.98
54666;BME280;40566;50.006;36.180;2023-05-02T14:39:16;100660.78;;;15.75;33.19
54666;BME280;40566;50.006;36.180;2023-05-02T14:44:16;100649.88;;;15.64;34.39
54666;BME280;40566;50.006;36.180;2023-05-02T14:49:17;100653.19;;;15.67;33.93
54666;BME280;40566;50.006;36.180;2023-05-02T14:54:18;100657.78;;;15.61;33.96
54666;BME280;40566;50.006;36.180;2023-05-02T14:59:19;100658.88;;;15.54;33.89
54666;BME280;40566;50.006;36.180;2023-05-02T15:04:20;100664.34;;;15.46;34.25
54666;BME280;40566;50.006;36.180;2023-05-02T15:09:21;100649.88;;;15.37;35.35
54666;BME280;40566;50.006;36.180;2023-05-02T15:14:22;100661.34;;;15.32;34.36
54666;BME280;40566;50.006;36.180;2023-05-02T15:19:23;100671.13;;;15.25;34.43
54666;BME280;40566;50.006;36.180;2023-05-02T15:24:27;100668.81;;;15.16;34.97
54666;BME280;40566;50.006;36.180;2023-05-02T15:29:27;100664.81;;;15.05;35.18
54666;BME280;40566;50.006;36.180;2023-05-02T15:34:28;100682.44;;;14.97;35.53
54666;BME280;40566;50.006;36.180;2023-05-02T15:39:30;100676.66;;;14.87;35.66
54666;BME280;40566;50.006;36.180;2023-05-02T15:44:34;100662.91;;;14.82;35.55
54666;BME280;40566;50.006;36.180;2023-05-02T15:49:36;100677.97;;;14.73;35.65
54666;BME280;40566;50.006;36.180;2023-05-02T15:54:36;100686.88;;;14.65;35.94
54666;BME280;40566;50.006;36.180;2023-05-02T15:59:38;100691.38;;;14.59;36.00
54666;BME280;40566;50.006;36.180;2023-05-02T16:04:39;100693.34;;;14.51;36.42
54666;BME280;40566;50.006;36.180;2023-05-02T16:09:39;100691.94;;;14.39;36.75
54666;BME280;40566;50.006;36.180;2023-05-02T16:14:41;100692.19;;;14.29;36.88
54666;BME280;40566;50.006;36.180;2023-05-02T16:19:42;100686.41;;;14.20;36.66
54666;BME280;40566;50.006;36.180;2023-05-02T16:24:43;100697.06;;;14.11;37.08
54666;BME280;40566;50.006;36.180;2023-05-02T16:29:43;100695.63;;;13.99;38.77
54666;BME280;40566;50.006;36.180;2023-05-02T16:34:44;100700.34;;;13.84;38.92
54666;BME280;40566;50.006;36.180;2023-05-02T16:39:44;100712.69;;;13.76;38.47
54666;BME280;40566;50.006;36.180;2023-05-02T16:44:45;100710.47;;;13.61;38.93
54666;BME280;40566;50.006;36.180;2023-05-02T16:49:46;100710.84;;;13.45;39.61
54666;BME280;40566;50.006;36.180;2023-05-02T16:54:51;100716.41;;;13.28;40.90
54666;BME280;40566;50.006;36.180;2023-05-02T16:59:52;100717.69;;;13.10;42.23
54666;BME280;40566;50.006;36.180;2023-05-02T17:04:52;100718.94;;;12.94;42.14
54666;BME280;40566;50.006;36.180;2023-05-02T17:09:53;100721.81;;;12.80;42.47
54666;BME280;40566;50.006;36.180;2023-05-02T17:14:54;100730.75;;;12.67;42.98
54666;BME280;40566;50.006;36.180;2023-05-02T17:19:55;100732.78;;;12.53;44.27
54666;BME280;40566;50.006;36.180;2023-05-02T17:24:55;100735.56;;;12.42;44.07
54666;BME280;40566;50.006;36.180;2023-05-02T17:29:56;100745.31;;;12.30;44.06
54666;BME280;40566;50.006;36.180;2023-05-02T17:34:57;100751.50;;;12.23;44.46
54666;BME280;40566;50.006;36.180;2023-05-02T17:39:57;100748.28;;;12.10;45.30
54666;BME280;40566;50.006;36.180;2023-05-02T17:45:01;100744.16;;;11.99;45.49
54666;BME280;40566;50.006;36.180;2023-05-02T17:50:02;100754.69;;;11.86;45.54
54666;BME280;40566;50.006;36.180;2023-05-02T17:55:04;100746.28;;;11.74;45.74
54666;BME280;40566;50.006;36.180;2023-05-02T18:00:06;100747.31;;;11.63;45.99
54666;BME280;40566;50.006;36.180;2023-05-02T18:05:07;100757.81;;;11.54;47.08
54666;BME280;40566;50.006;36.180;2023-05-02T18:10:08;100761.44;;;11.42;47.38
54666;BME280;40566;50.006;36.180;2023-05-02T18:15:09;100750.38;;;11.32;47.81
54666;BME280;40566;50.006;36.180;2023-05-02T18:20:10;100757.38;;;11.24;47.77
54666;BME280;40566;50.006;36.180;2023-05-02T18:25:11;100754.06;;;11.16;48.11
54666;BME280;40566;50.006;36.180;2023-05-02T18:30:11;100761.03;;;11.09;47.96
54666;BME280;40566;50.006;36.180;2023-05-02T18:35:12;100759.44;;;11.02;48.85
54666;BME280;40566;50.006;36.180;2023-05-02T18:40:13;100747.44;;;10.94;49.12
54666;BME280;40566;50.006;36.180;2023-05-02T18:45:14;100750.97;;;10.88;49.48
54666;BME280;40566;50.006;36.180;2023-05-02T18:50:15;100757.97;;;10.81;49.41
54666;BME280;40566;50.006;36.180;2023-05-02T18:55:16;100767.56;;;10.73;49.96
54666;BME280;40566;50.006;36.180;2023-05-02T19:00:18;100758.19;;;10.64;49.96
54666;BME280;40566;50.006;36.180;2023-05-02T19:05:19;100765.13;;;10.59;49.97
54666;BME280;40566;50.006;36.180;2023-05-02T19:10:20;100771.19;;;10.57;50.07
54666;BME280;40566;50.006;36.180;2023-05-02T19:15:20;100760.94;;;10.47;50.09
54666;BME280;40566;50.006;36.180;2023-05-02T19:20:26;100740.31;;;10.41;50.06
54666;BME280;40566;50.006;36.180;2023-05-02T19:25:27;100755.06;;;10.33;50.44
54666;BME280;40566;50.006;36.180;2023-05-02T19:30:28;100754.28;;;10.23;50.45
54666;BME280;40566;50.006;36.180;2023-05-02T19:35:28;100751.72;;;10.19;50.84
54666;BME280;40566;50.006;36.180;2023-05-02T19:40:33;100752.69;;;10.10;51.89
54666;BME280;40566;50.006;36.180;2023-05-02T19:45:33;100752.75;;;10.04;51.83
54666;BME280;40566;50.006;36.180;2023-05-02T19:50:34;100756.22;;;9.98;51.57
54666;BME280;40566;50.006;36.180;2023-05-02T19:55:35;100758.03;;;9.91;52.48
54666;BME280;40566;50.006;36.180;2023-05-02T20:00:36;100756.34;;;9.84;52.70
54666;BME280;40566;50.006;36.180;2023-05-02T20:05:36;100760.72;;;9.78;53.17
54666;BME280;40566;50.006;36.180;2023-05-02T20:10:37;100758.19;;;9.70;53.50
54666;BME280;40566;50.006;36.180;2023-05-02T20:15:38;100759.16;;;9.60;53.73
54666;BME280;40566;50.006;36.180;2023-05-02T20:20:39;100755.72;;;9.55;53.67
54666;BME280;40566;50.006;36.180;2023-05-02T20:25:40;100744.59;;;9.48;53.50
54666;BME280;40566;50.006;36.180;2023-05-02T20:30:40;100749.75;;;9.46;53.54
54666;BME280;40566;50.006;36.180;2023-05-02T20:35:43;100742.91;;;9.39;53.28
54666;BME280;40566;50.006;36.180;2023-05-02T20:40:44;100738.66;;;9.33;53.65
54666;BME280;40566;50.006;36.180;2023-05-02T20:45:45;100735.25;;;9.28;53.71
54666;BME280;40566;50.006;36.180;2023-05-02T20:50:55;100724.94;;;9.25;53.70
54666;BME280;40566;50.006;36.180;2023-05-02T20:55:55;100749.06;;;9.20;53.80
54666;BME280;40566;50.006;36.180;2023-05-02T21:00:56;100746.53;;;9.12;53.56
54666;BME280;40566;50.006;36.180;2023-05-02T21:05:57;100743.13;;;9.08;53.84
54666;BME280;40566;50.006;36.180;2023-05-02T21:11:00;100746.59;;;9.01;54.13
54666;BME280;40566;50.006;36.180;2023-05-02T21:16:01;100745.75;;;8.96;54.29
54666;BME280;40566;50.006;36.180;2023-05-02T21:21:01;100745.78;;;8.91;54.35
54666;BME280;40566;50.006;36.180;2023-05-02T21:26:02;100744.09;;;8.87;54.56
54666;BME280;40566;50.006;36.180;2023-05-02T21:31:03;100738.09;;;8.81;54.55
54666;BME280;40566;50.006;36.180;2023-05-02T21:36:04;100739.84;;;8.74;54.89
54666;BME280;40566;50.006;36.180;2023-05-02T21:41:05;100735.56;;;8.71;55.04
54666;BME280;40566;50.006;36.180;2023-05-02T21:46:06;100737.28;;;8.69;55.17
54666;BME280;40566;50.006;36.180;2023-05-02T21:51:08;100731.28;;;8.64;55.65
54666;BME280;40566;50.006;36.180;2023-05-02T21:56:09;100739.88;;;8.60;55.95
54666;BME280;40566;50.006;36.180;2023-05-02T22:01:09;100735.59;;;8.56;56.14
54666;BME280;40566;50.006;36.180;2023-05-02T22:06:10;100735.63;;;8.51;56.31
54666;BME280;40566;50.006;36.180;2023-05-02T22:11:11;100739.06;;;8.49;56.47
54666;BME280;40566;50.006;36.180;2023-05-02T22:16:11;100735.66;;;8.44;56.58
54666;BME280;40566;50.006;36.180;2023-05-02T22:21:12;100739.97;;;8.42;56.78
54666;BME280;40566;50.006;36.180;2023-05-02T22:26:12;100750.22;;;8.37;57.05
54666;BME280;40566;50.006;36.180;2023-05-02T22:31:14;100751.13;;;8.30;57.39
54666;BME280;40566;50.006;36.180;2023-05-02T22:36:16;100749.41;;;8.29;57.52
54666;BME280;40566;50.006;36.180;2023-05-02T22:41:17;100761.47;;;8.24;57.74
54666;BME280;40566;50.006;36.180;2023-05-02T22:46:17;100759.72;;;8.21;58.06
54666;BME280;40566;50.006;36.180;2023-05-02T22:51:18;100747.72;;;8.06;57.71
54666;BME280;40566;50.006;36.180;2023-05-02T22:56:19;100764.91;;;8.09;58.04
54666;BME280;40566;50.006;36.180;2023-05-02T23:01:20;100770.94;;;8.08;58.19
54666;BME280;40566;50.006;36.180;2023-05-02T23:06:20;100762.34;;;8.06;58.50
54666;BME280;40566;50.006;36.180;2023-05-02T23:11:21;100756.34;;;7.88;58.16
54666;BME280;40566;50.006;36.180;2023-05-02T23:16:22;100770.91;;;7.95;58.40
54666;BME280;40566;50.006;36.180;2023-05-02T23:21:23;100768.34;;;7.92;58.61
54666;BME280;40566;50.006;36.180;2023-05-02T23:26:23;100770.94;;;7.85;58.79
54666;BME280;40566;50.006;36.180;2023-05-02T23:31:24;100781.25;;;7.80;58.76
54666;BME280;40566;50.006;36.180;2023-05-02T23:36:25;100776.06;;;7.74;59.04
54666;BME280;40566;50.006;36.180;2023-05-02T23:41:26;100773.50;;;7.68;59.18
54666;BME280;40566;50.006;36.180;2023-05-02T23:46:27;100781.22;;;7.65;59.16
54666;BME280;40566;50.006;36.180;2023-05-02T23:51:28;100759.75;;;7.53;59.08
54666;BME280;40566;50.006;36.180;2023-05-02T23:56:28;100774.38;;;7.61;59.01
